sensor_id;sensor_type;location;lat;lon;timestamp;pressure;altitude;pressure_sealevel;temperature;humidity
61337;BME280;47212;41.326;2.104;2024-02-23T00:04:00;100268.38;;;14.20;98.21
61337;BME280;47212;41.326;2.104;2024-02-23T00:09:04;100267.22;;;14.08;95.91
61337;BME280;47212;41.326;2.104;2024-02-23T00:14:25;100263.53;;;13.98;92.63
61337;BME280;47212;41.326;2.104;2024-02-23T00:19:45;100268.56;;;13.91;91.08
61337;BME280;47212;41.326;2.104;2024-02-23T00:24:48;100281.72;;;13.89;91.60
61337;BME280;47212;41.326;2.104;2024-02-23T00:29:50;100262.75;;;13.74;92.55
61337;BME280;47212;41.326;2.104;2024-02-23T00:34:52;100250.31;;;13.63;95.17
61337;BME280;47212;41.326;2.104;2024-02-23T00:39:55;100229.19;;;13.50;94.50
61337;BME280;47212;41.326;2.104;2024-02-23T00:44:57;100215.56;;;13.45;94.62
61337;BME280;47212;41.326;2.104;2024-02-23T00:50:00;100211.88;;;13.35;95.65
61337;BME280;47212;41.326;2.104;2024-02-23T00:55:03;100222.47;;;13.18;95.62
61337;BME280;47212;41.326;2.104;2024-02-23T01:00:14;100213.84;;;13.06;97.00
61337;BME280;47212;41.326;2.104;2024-02-23T01:05:22;100213.34;;;12.99;99.18
61337;BME280;47212;41.326;2.104;2024-02-23T01:10:34;100216.91;;;12.99;99.26
61337;BME280;47212;41.326;2.104;2024-02-23T01:15:39;100215.09;;;12.90;99.13
61337;BME280;47212;41.326;2.104;2024-02-23T01:20:44;100224.94;;;12.91;99.37
61337;BME280;47212;41.326;2.104;2024-02-23T01:26:00;100237.47;;;12.92;99.30
61337;BME280;47212;41.326;2.104;2024-02-23T01:31:03;100243.34;;;12.80;99.57
61337;BME280;47212;41.326;2.104;2024-02-23T01:36:07;100255.66;;;12.77;100.00
61337;BME280;47212;41.326;2.104;2024-02-23T01:41:14;100263.56;;;12.79;100.00
61337;BME280;47212;41.326;2.104;2024-02-23T01:46:21;100299.25;;;12.88;100.00
61337;BME280;47212;41.326;2.104;2024-02-23T01:51:28;100282.00;;;12.92;100.00
61337;BME280;47212;41.326;2.104;2024-02-23T01:56:31;100267.47;;;12.97;100.00
61337;BME280;47212;41.326;2.104;2024-02-23T02:01:34;100226.03;;;12.90;99.73
61337;BME280;47212;41.326;2.104;2024-02-23T02:06:39;100160.53;;;12.85;97.96
61337;BME280;47212;41.326;2.104;2024-02-23T02:11:49;100173.16;;;12.81;97.84
61337;BME280;47212;41.326;2.104;2024-02-23T02:22:31;100197.66;;;12.86;98.14
61337;BME280;47212;41.326;2.104;2024-02-23T02:27:34;100218.59;;;12.95;98.36
61337;BME280;47212;41.326;2.104;2024-02-23T02:32:42;100194.22;;;13.04;98.65
61337;BME280;47212;41.326;2.104;2024-02-23T02:37:48;100193.63;;;13.07;97.90
61337;BME280;47212;41.326;2.104;2024-02-23T02:42:51;100211.66;;;13.08;98.29
61337;BME280;47212;41.326;2.104;2024-02-23T02:47:53;100178.84;;;13.08;100.00
61337;BME280;47212;41.326;2.104;2024-02-23T02:52:58;100202.03;;;13.11;99.59
61337;BME280;47212;41.326;2.104;2024-02-23T02:58:01;100152.88;;;13.11;99.36
61337;BME280;47212;41.326;2.104;2024-02-23T03:03:03;100166.75;;;13.14;99.17
61337;BME280;47212;41.326;2.104;2024-02-23T03:08:11;100176.31;;;13.17;98.77
61337;BME280;47212;41.326;2.104;2024-02-23T03:13:14;100181.19;;;13.20;97.35
61337;BME280;47212;41.326;2.104;2024-02-23T03:18:26;100165.09;;;13.18;97.81
61337;BME280;47212;41.326;2.104;2024-02-23T03:23:31;100152.78;;;13.16;95.95
61337;BME280;47212;41.326;2.104;2024-02-23T03:28:43;100146.78;;;13.19;96.09
61337;BME280;47212;41.326;2.104;2024-02-23T03:33:50;100136.88;;;13.23;97.51
61337;BME280;47212;41.326;2.104;2024-02-23T03:38:52;100125.34;;;13.26;97.39
61337;BME280;47212;41.326;2.104;2024-02-23T03:43:54;100115.25;;;13.26;98.36
61337;BME280;47212;41.326;2.104;2024-02-23T03:48:57;100118.63;;;13.18;96.35
61337;BME280;47212;41.326;2.104;2024-02-23T03:53:59;100135.50;;;13.01;91.94
61337;BME280;47212;41.326;2.104;2024-02-23T03:59:02;100134.25;;;12.89;90.06
61337;BME280;47212;41.326;2.104;2024-02-23T04:04:05;100142.59;;;12.79;86.11
61337;BME280;47212;41.326;2.104;2024-02-23T04:09:07;100160.47;;;12.66;82.08
61337;BME280;47212;41.326;2.104;2024-02-23T04:14:10;100164.44;;;12.55;77.58
61337;BME280;47212;41.326;2.104;2024-02-23T04:19:12;100169.41;;;12.48;75.30
61337;BME280;47212;41.326;2.104;2024-02-23T04:24:15;100181.50;;;12.41;72.89
61337;BME280;47212;41.326;2.104;2024-02-23T04:29:17;100194.38;;;12.36;71.28
61337;BME280;47212;41.326;2.104;2024-02-23T04:34:19;100212.22;;;12.23;63.04
61337;BME280;47212;41.326;2.104;2024-02-23T04:39:22;100223.97;;;12.24;70.29
61337;BME280;47212;41.326;2.104;2024-02-23T04:44:24;100238.75;;;12.18;69.62
61337;BME280;47212;41.326;2.104;2024-02-23T04:49:27;100251.03;;;12.10;63.04
61337;BME280;47212;41.326;2.104;2024-02-23T04:54:35;100248.03;;;12.11;67.71
61337;BME280;47212;41.326;2.104;2024-02-23T04:59:37;100245.34;;;12.06;66.31
61337;BME280;47212;41.326;2.104;2024-02-23T05:04:41;100253.00;;;12.04;66.73
61337;BME280;47212;41.326;2.104;2024-02-23T05:09:44;100240.22;;;12.00;65.89
61337;BME280;47212;41.326;2.104;2024-02-23T05:14:46;100235.59;;;11.95;65.34
61337;BME280;47212;41.326;2.104;2024-02-23T05:19:49;100243.84;;;11.85;60.79
61337;BME280;47212;41.326;2.104;2024-02-23T05:24:51;100253.94;;;11.85;65.78
61337;BME280;47212;41.326;2.104;2024-02-23T05:29:53;100255.06;;;11.78;65.46
61337;BME280;47212;41.326;2.104;2024-02-23T05:34:55;100267.66;;;11.69;60.58
61337;BME280;47212;41.326;2.104;2024-02-23T05:39:59;100268.22;;;11.66;64.88
61337;BME280;47212;41.326;2.104;2024-02-23T05:45:03;100278.84;;;11.63;66.13
61337;BME280;47212;41.326;2.104;2024-02-23T05:50:10;100275.59;;;11.61;67.60
61337;BME280;47212;41.326;2.104;2024-02-23T05:55:13;100297.97;;;11.58;69.93
61337;BME280;47212;41.326;2.104;2024-02-23T06:00:16;100305.59;;;11.56;73.50
61337;BME280;47212;41.326;2.104;2024-02-23T06:05:20;100317.06;;;11.53;75.20
61337;BME280;47212;41.326;2.104;2024-02-23T06:10:23;100320.34;;;11.49;78.51
61337;BME280;47212;41.326;2.104;2024-02-23T06:15:25;100334.53;;;11.46;78.66
61337;BME280;47212;41.326;2.104;2024-02-23T06:20:27;100342.72;;;11.46;80.92
61337;BME280;47212;41.326;2.104;2024-02-23T06:25:29;100333.72;;;11.46;82.50
61337;BME280;47212;41.326;2.104;2024-02-23T06:30:33;100351.69;;;11.47;83.09
61337;BME280;47212;41.326;2.104;2024-02-23T06:35:35;100361.78;;;11.46;84.90
61337;BME280;47212;41.326;2.104;2024-02-23T06:40:37;100360.16;;;11.45;83.27
61337;BME280;47212;41.326;2.104;2024-02-23T06:45:55;100375.16;;;11.43;82.15
61337;BME280;47212;41.326;2.104;2024-02-23T06:50:57;100383.06;;;11.39;78.85
61337;BME280;47212;41.326;2.104;2024-02-23T06:56:00;100392.34;;;11.38;77.59
61337;BME280;47212;41.326;2.104;2024-02-23T07:01:04;100404.59;;;11.36;75.55
61337;BME280;47212;41.326;2.104;2024-02-23T07:06:09;100417.41;;;11.35;73.78
61337;BME280;47212;41.326;2.104;2024-02-23T07:11:12;100423.41;;;11.32;73.52
61337;BME280;47212;41.326;2.104;2024-02-23T07:16:15;100438.13;;;11.31;72.94
61337;BME280;47212;41.326;2.104;2024-02-23T07:21:17;100441.94;;;11.35;75.43
61337;BME280;47212;41.326;2.104;2024-02-23T07:26:20;100447.09;;;11.42;80.88
61337;BME280;47212;41.326;2.104;2024-02-23T07:31:24;100441.63;;;11.52;81.79
61337;BME280;47212;41.326;2.104;2024-02-23T07:36:27;100451.16;;;11.65;81.57
61337;BME280;47212;41.326;2.104;2024-02-23T07:41:29;100474.31;;;11.67;81.90
61337;BME280;47212;41.326;2.104;2024-02-23T07:46:31;100481.41;;;11.58;82.05
61337;BME280;47212;41.326;2.104;2024-02-23T07:51:33;100489.63;;;11.48;81.02
61337;BME280;47212;41.326;2.104;2024-02-23T07:56:36;100484.69;;;11.60;81.48
61337;BME280;47212;41.326;2.104;2024-02-23T08:01:38;100486.53;;;12.65;78.12
61337;BME280;47212;41.326;2.104;2024-02-23T08:06:42;100486.72;;;12.79;76.44
61337;BME280;47212;41.326;2.104;2024-02-23T08:11:54;100489.50;;;13.18;73.65
61337;BME280;47212;41.326;2.104;2024-02-23T08:16:57;100493.53;;;13.54;72.47
61337;BME280;47212;41.326;2.104;2024-02-23T08:21:59;100495.88;;;13.66;68.65
61337;BME280;47212;41.326;2.104;2024-02-23T08:27:01;100507.69;;;14.14;69.15
61337;BME280;47212;41.326;2.104;2024-02-23T08:32:05;100506.75;;;14.90;66.71
61337;BME280;47212;41.326;2.104;2024-02-23T08:37:08;100517.19;;;15.07;64.40
61337;BME280;47212;41.326;2.104;2024-02-23T08:42:10;100514.13;;;15.27;63.04
61337;BME280;47212;41.326;2.104;2024-02-23T08:47:12;100511.97;;;15.57;55.03
61337;BME280;47212;41.326;2.104;2024-02-23T08:52:14;100506.50;;;15.89;60.32
61337;BME280;47212;41.326;2.104;2024-02-23T08:57:17;100505.06;;;16.06;60.07
61337;BME280;47212;41.326;2.104;2024-02-23T09:02:21;100507.00;;;16.33;59.11
61337;BME280;47212;41.326;2.104;2024-02-23T09:07:23;100518.63;;;16.71;57.24
61337;BME280;47212;41.326;2.104;2024-02-23T09:12:29;100521.34;;;17.07;56.44
61337;BME280;47212;41.326;2.104;2024-02-23T09:17:32;100529.69;;;17.15;55.90
61337;BME280;47212;41.326;2.104;2024-02-23T09:22:34;100517.31;;;17.27;54.27
61337;BME280;47212;41.326;2.104;2024-02-23T09:27:38;100502.69;;;17.40;54.15
61337;BME280;47212;41.326;2.104;2024-02-23T09:32:46;100514.44;;;17.32;53.34
61337;BME280;47212;41.326;2.104;2024-02-23T09:37:50;100499.41;;;16.93;52.70
61337;BME280;47212;41.326;2.104;2024-02-23T09:42:57;100507.94;;;17.28;51.37
61337;BME280;47212;41.326;2.104;2024-02-23T09:48:02;100515.88;;;17.51;51.73
61337;BME280;47212;41.326;2.104;2024-02-23T09:53:09;100516.06;;;17.55;50.19
61337;BME280;47212;41.326;2.104;2024-02-23T09:58:13;100514.94;;;17.78;51.60
61337;BME280;47212;41.326;2.104;2024-02-23T10:03:19;100511.47;;;17.42;52.30
61337;BME280;47212;41.326;2.104;2024-02-23T10:08:22;100517.59;;;16.67;51.97
61337;BME280;47212;41.326;2.104;2024-02-23T10:13:26;100512.38;;;16.79;51.28
61337;BME280;47212;41.326;2.104;2024-02-23T10:18:28;100514.13;;;16.61;52.76
61337;BME280;47212;41.326;2.104;2024-02-23T10:23:33;100504.66;;;16.53;53.92
61337;BME280;47212;41.326;2.104;2024-02-23T10:28:39;100509.44;;;16.34;53.19
61337;BME280;47212;41.326;2.104;2024-02-23T10:33:42;100514.94;;;16.07;54.35
61337;BME280;47212;41.326;2.104;2024-02-23T10:38:48;100502.53;;;16.23;53.99
61337;BME280;47212;41.326;2.104;2024-02-23T10:43:55;100498.25;;;16.44;53.52
61337;BME280;47212;41.326;2.104;2024-02-23T10:49:02;100484.50;;;16.72;52.49
61337;BME280;47212;41.326;2.104;2024-02-23T10:54:07;100483.66;;;17.07;52.85
61337;BME280;47212;41.326;2.104;2024-02-23T10:59:10;100471.53;;;17.31;52.11
61337;BME280;47212;41.326;2.104;2024-02-23T11:04:12;100480.13;;;17.51;49.96
61337;BME280;47212;41.326;2.104;2024-02-23T11:09:16;100481.53;;;17.71;49.67
61337;BME280;47212;41.326;2.104;2024-02-23T11:14:18;100470.13;;;17.87;49.66
61337;BME280;47212;41.326;2.104;2024-02-23T11:19:35;100458.53;;;18.07;48.01
61337;BME280;47212;41.326;2.104;2024-02-23T11:24:43;100459.09;;;18.26;47.20
61337;BME280;47212;41.326;2.104;2024-02-23T11:29:59;100457.97;;;18.36;44.05
61337;BME280;47212;41.326;2.104;2024-02-23T11:35:10;100446.66;;;18.55;43.93
61337;BME280;47212;41.326;2.104;2024-02-23T11:40:13;100438.44;;;18.72;41.07
61337;BME280;47212;41.326;2.104;2024-02-23T11:45:15;100445.41;;;18.87;40.90
61337;BME280;47212;41.326;2.104;2024-02-23T11:50:18;100452.88;;;18.95;39.92
61337;BME280;47212;41.326;2.104;2024-02-23T11:55:23;100453.66;;;18.95;37.60
61337;BME280;47212;41.326;2.104;2024-02-23T12:00:26;100440.53;;;18.75;39.06
61337;BME280;47212;41.326;2.104;2024-02-23T12:05:28;100437.09;;;18.61;37.92
61337;BME280;47212;41.326;2.104;2024-02-23T12:10:30;100430.09;;;18.37;35.90
61337;BME280;47212;41.326;2.104;2024-02-23T12:15:33;100424.59;;;18.29;37.33
61337;BME280;47212;41.326;2.104;2024-02-23T12:20:35;100416.31;;;18.37;37.71
61337;BME280;47212;41.326;2.104;2024-02-23T12:25:38;100411.78;;;18.41;36.52
61337;BME280;47212;41.326;2.104;2024-02-23T12:30:44;100398.81;;;18.42;36.41
61337;BME280;47212;41.326;2.104;2024-02-23T12:35:54;100396.47;;;18.09;34.94
61337;BME280;47212;41.326;2.104;2024-02-23T12:40:56;100399.97;;;17.84;36.22
61337;BME280;47212;41.326;2.104;2024-02-23T12:45:59;100395.13;;;17.90;35.33
61337;BME280;47212;41.326;2.104;2024-02-23T12:51:03;100374.66;;;18.30;36.10
61337;BME280;47212;41.326;2.104;2024-02-23T12:56:07;100367.53;;;18.55;36.04
61337;BME280;47212;41.326;2.104;2024-02-23T13:01:10;100380.19;;;18.56;35.00
61337;BME280;47212;41.326;2.104;2024-02-23T13:06:13;100358.16;;;18.65;33.60
61337;BME280;47212;41.326;2.104;2024-02-23T13:11:16;100382.81;;;18.70;33.95
61337;BME280;47212;41.326;2.104;2024-02-23T13:16:18;100353.28;;;18.62;32.87
61337;BME280;47212;41.326;2.104;2024-02-23T13:21:21;100360.25;;;18.68;33.26
61337;BME280;47212;41.326;2.104;2024-02-23T13:26:23;100368.66;;;18.45;32.29
61337;BME280;47212;41.326;2.104;2024-02-23T13:31:26;100336.66;;;17.93;32.37
61337;BME280;47212;41.326;2.104;2024-02-23T13:36:28;100348.78;;;17.74;32.27
61337;BME280;47212;41.326;2.104;2024-02-23T13:41:30;100326.13;;;17.77;33.30
61337;BME280;47212;41.326;2.104;2024-02-23T13:46:39;100343.00;;;18.02;30.88
61337;BME280;47212;41.326;2.104;2024-02-23T13:51:42;100324.84;;;18.01;33.65
61337;BME280;47212;41.326;2.104;2024-02-23T13:56:45;100336.41;;;17.63;33.17
61337;BME280;47212;41.326;2.104;2024-02-23T14:01:47;100325.69;;;17.53;32.99
61337;BME280;47212;41.326;2.104;2024-02-23T14:06:50;100330.53;;;17.47;32.37
61337;BME280;47212;41.326;2.104;2024-02-23T14:11:53;100333.16;;;17.61;32.31
61337;BME280;47212;41.326;2.104;2024-02-23T14:16:56;100329.13;;;17.28;32.19
61337;BME280;47212;41.326;2.104;2024-02-23T14:21:59;100324.81;;;17.35;33.21
61337;BME280;47212;41.326;2.104;2024-02-23T14:27:01;100312.44;;;17.55;32.57
61337;BME280;47212;41.326;2.104;2024-02-23T14:32:04;100313.00;;;17.74;33.40
61337;BME280;47212;41.326;2.104;2024-02-23T14:37:06;100301.69;;;17.85;32.84
61337;BME280;47212;41.326;2.104;2024-02-23T14:42:09;100296.66;;;17.87;31.94
61337;BME280;47212;41.326;2.104;2024-02-23T14:47:11;100319.50;;;17.87;31.72
61337;BME280;47212;41.326;2.104;2024-02-23T14:52:15;100319.31;;;17.83;30.73
61337;BME280;47212;41.326;2.104;2024-02-23T14:57:17;100305.72;;;17.78;31.18
61337;BME280;47212;41.326;2.104;2024-02-23T15:02:21;100312.50;;;17.72;30.96
61337;BME280;47212;41.326;2.104;2024-02-23T15:07:23;100302.78;;;17.66;29.77
61337;BME280;47212;41.326;2.104;2024-02-23T15:12:26;100307.75;;;17.25;31.81
61337;BME280;47212;41.326;2.104;2024-02-23T15:17:30;100315.56;;;17.00;30.31
61337;BME280;47212;41.326;2.104;2024-02-23T15:22:33;100300.38;;;17.03;31.42
61337;BME280;47212;41.326;2.104;2024-02-23T15:27:36;100306.69;;;17.03;32.00
61337;BME280;47212;41.326;2.104;2024-02-23T15:32:40;100323.19;;;17.03;31.42
61337;BME280;47212;41.326;2.104;2024-02-23T15:37:43;100309.56;;;16.98;31.99
61337;BME280;47212;41.326;2.104;2024-02-23T15:42:45;100296.78;;;16.94;31.54
61337;BME280;47212;41.326;2.104;2024-02-23T15:47:48;100297.41;;;16.91;31.62
61337;BME280;47212;41.326;2.104;2024-02-23T15:52:51;100293.66;;;16.86;31.74
61337;BME280;47212;41.326;2.104;2024-02-23T15:57:53;100294.16;;;16.88;32.11
61337;BME280;47212;41.326;2.104;2024-02-23T16:02:55;100301.09;;;16.86;31.09
61337;BME280;47212;41.326;2.104;2024-02-23T16:07:57;100300.88;;;16.74;31.10
61337;BME280;47212;41.326;2.104;2024-02-23T16:13:06;100291.69;;;16.56;29.53
61337;BME280;47212;41.326;2.104;2024-02-23T16:18:13;100277.88;;;16.47;29.34
61337;BME280;47212;41.326;2.104;2024-02-23T16:23:19;100278.59;;;16.39;30.94
61337;BME280;47212;41.326;2.104;2024-02-23T16:28:21;100286.47;;;16.32;31.15
61337;BME280;47212;41.326;2.104;2024-02-23T16:33:23;100286.72;;;16.22;31.27
61337;BME280;47212;41.326;2.104;2024-02-23T16:38:26;100273.72;;;16.14;30.40
61337;BME280;47212;41.326;2.104;2024-02-23T16:43:29;100282.69;;;16.06;31.73
61337;BME280;47212;41.326;2.104;2024-02-23T16:48:31;100291.06;;;16.01;31.61
61337;BME280;47212;41.326;2.104;2024-02-23T16:53:34;100301.03;;;15.97;32.34
61337;BME280;47212;41.326;2.104;2024-02-23T16:58:36;100294.53;;;15.92;31.87
61337;BME280;47212;41.326;2.104;2024-02-23T17:03:39;100311.63;;;15.89;32.42
61337;BME280;47212;41.326;2.104;2024-02-23T17:08:42;100307.34;;;15.83;33.34
61337;BME280;47212;41.326;2.104;2024-02-23T17:13:44;100310.81;;;15.75;33.16
61337;BME280;47212;41.326;2.104;2024-02-23T17:18:46;100316.53;;;15.65;33.34
61337;BME280;47212;41.326;2.104;2024-02-23T17:23:49;100326.25;;;15.57;33.00
61337;BME280;47212;41.326;2.104;2024-02-23T17:28:52;100339.84;;;15.49;33.37
61337;BME280;47212;41.326;2.104;2024-02-23T17:33:54;100346.66;;;15.38;33.74
61337;BME280;47212;41.326;2.104;2024-02-23T17:39:00;100351.53;;;15.27;34.10
61337;BME280;47212;41.326;2.104;2024-02-23T17:44:02;100352.53;;;15.17;34.04
61337;BME280;47212;41.326;2.104;2024-02-23T17:49:11;100361.13;;;15.11;34.24
61337;BME280;47212;41.326;2.104;2024-02-23T17:54:15;100367.81;;;15.05;34.40
61337;BME280;47212;41.326;2.104;2024-02-23T17:59:17;100364.38;;;14.99;34.50
61337;BME280;47212;41.326;2.104;2024-02-23T18:04:22;100370.44;;;14.96;34.99
61337;BME280;47212;41.326;2.104;2024-02-23T18:09:25;100373.50;;;14.94;34.76
61337;BME280;47212;41.326;2.104;2024-02-23T18:14:27;100383.63;;;14.94;35.50
61337;BME280;47212;41.326;2.104;2024-02-23T18:19:31;100397.94;;;14.91;35.88
61337;BME280;47212;41.326;2.104;2024-02-23T18:24:34;100391.13;;;14.88;35.96
61337;BME280;47212;41.326;2.104;2024-02-23T18:29:36;100400.25;;;14.84;36.26
61337;BME280;47212;41.326;2.104;2024-02-23T18:34:38;100395.97;;;14.78;36.39
61337;BME280;47212;41.326;2.104;2024-02-23T18:39:41;100409.97;;;14.76;36.03
61337;BME280;47212;41.326;2.104;2024-02-23T18:44:43;100411.13;;;14.70;36.31
61337;BME280;47212;41.326;2.104;2024-02-23T18:49:45;100421.84;;;14.66;34.39
61337;BME280;47212;41.326;2.104;2024-02-23T18:54:48;100416.38;;;14.66;36.85
61337;BME280;47212;41.326;2.104;2024-02-23T18:59:51;100434.22;;;14.64;36.67
61337;BME280;47212;41.326;2.104;2024-02-23T19:04:53;100430.75;;;14.58;36.63
61337;BME280;47212;41.326;2.104;2024-02-23T19:09:55;100432.97;;;14.56;36.81
61337;BME280;47212;41.326;2.104;2024-02-23T19:14:58;100425.66;;;14.52;37.03
61337;BME280;47212;41.326;2.104;2024-02-23T19:20:01;100425.41;;;14.48;37.22
61337;BME280;47212;41.326;2.104;2024-02-23T19:25:09;100424.38;;;14.44;36.63
61337;BME280;47212;41.326;2.104;2024-02-23T19:30:12;100427.41;;;14.43;37.00
61337;BME280;47212;41.326;2.104;2024-02-23T19:35:18;100417.31;;;14.38;36.84
61337;BME280;47212;41.326;2.104;2024-02-23T19:40:23;100417.91;;;14.35;37.23
61337;BME280;47212;41.326;2.104;2024-02-23T19:45:27;100413.63;;;14.29;37.12
61337;BME280;47212;41.326;2.104;2024-02-23T19:50:29;100411.25;;;14.22;37.31
61337;BME280;47212;41.326;2.104;2024-02-23T19:55:31;100420.84;;;14.20;37.47
61337;BME280;47212;41.326;2.104;2024-02-23T20:00:35;100414.06;;;14.17;37.27
61337;BME280;47212;41.326;2.104;2024-02-23T20:05:37;100406.44;;;14.14;37.41
61337;BME280;47212;41.326;2.104;2024-02-23T20:10:40;100408.94;;;14.11;37.25
61337;BME280;47212;41.326;2.104;2024-02-23T20:15:42;100405.69;;;14.09;37.66
61337;BME280;47212;41.326;2.104;2024-02-23T20:20:44;100418.84;;;14.07;37.66
61337;BME280;47212;41.326;2.104;2024-02-23T20:25:47;100419.66;;;14.07;37.99
61337;BME280;47212;41.326;2.104;2024-02-23T20:30:49;100424.59;;;14.05;37.67
61337;BME280;47212;41.326;2.104;2024-02-23T20:35:54;100436.66;;;14.04;37.62
61337;BME280;47212;41.326;2.104;2024-02-23T20:40:57;100439.69;;;14.02;37.74
61337;BME280;47212;41.326;2.104;2024-02-23T20:45:59;100447.38;;;14.00;37.71
61337;BME280;47212;41.326;2.104;2024-02-23T20:51:02;100445.22;;;13.97;38.05
61337;BME280;47212;41.326;2.104;2024-02-23T20:56:07;100441.75;;;13.92;38.26
61337;BME280;47212;41.326;2.104;2024-02-23T21:01:11;100428.38;;;13.85;37.92
61337;BME280;47212;41.326;2.104;2024-02-23T21:06:13;100419.13;;;13.81;38.27
61337;BME280;47212;41.326;2.104;2024-02-23T21:11:16;100421.34;;;13.79;38.04
61337;BME280;47212;41.326;2.104;2024-02-23T21:16:18;100427.41;;;13.76;38.43
61337;BME280;47212;41.326;2.104;2024-02-23T21:21:20;100416.50;;;13.71;36.46
61337;BME280;47212;41.326;2.104;2024-02-23T21:26:22;100412.44;;;13.68;38.32
61337;BME280;47212;41.326;2.104;2024-02-23T21:31:25;100400.22;;;13.61;36.29
61337;BME280;47212;41.326;2.104;2024-02-23T21:36:27;100405.75;;;13.56;38.58
61337;BME280;47212;41.326;2.104;2024-02-23T21:41:29;100408.25;;;13.52;38.56
61337;BME280;47212;41.326;2.104;2024-02-23T21:46:32;100408.81;;;13.49;38.20
61337;BME280;47212;41.326;2.104;2024-02-23T21:51:34;100402.59;;;13.44;36.79
61337;BME280;47212;41.326;2.104;2024-02-23T21:56:36;100398.22;;;13.43;38.85
61337;BME280;47212;41.326;2.104;2024-02-23T22:01:39;100404.28;;;13.39;38.28
61337;BME280;47212;41.326;2.104;2024-02-23T22:06:41;100392.00;;;13.37;38.44
61337;BME280;47212;41.326;2.104;2024-02-23T22:11:44;100399.97;;;13.33;38.54
61337;BME280;47212;41.326;2.104;2024-02-23T22:16:46;100407.63;;;13.31;38.88
61337;BME280;47212;41.326;2.104;2024-02-23T22:21:49;100409.84;;;13.29;38.41
61337;BME280;47212;41.326;2.104;2024-02-23T22:26:52;100410.94;;;13.28;38.43
61337;BME280;47212;41.326;2.104;2024-02-23T22:31:56;100404.13;;;13.26;38.48
61337;BME280;47212;41.326;2.104;2024-02-23T22:37:00;100409.91;;;13.24;38.37
61337;BME280;47212;41.326;2.104;2024-02-23T22:42:03;100413.44;;;13.25;38.70
61337;BME280;47212;41.326;2.104;2024-02-23T22:47:06;100410.41;;;13.26;38.19
61337;BME280;47212;41.326;2.104;2024-02-23T22:52:10;100405.78;;;13.27;38.70
61337;BME280;47212;41.326;2.104;2024-02-23T22:57:12;100399.19;;;13.28;38.21
61337;BME280;47212;41.326;2.104;2024-02-23T23:02:15;100401.94;;;13.28;38.79
61337;BME280;47212;41.326;2.104;2024-02-23T23:07:17;100393.53;;;13.19;38.91
61337;BME280;47212;41.326;2.104;2024-02-23T23:12:19;100399.66;;;13.06;39.21
61337;BME280;47212;41.326;2.104;2024-02-23T23:17:22;100399.22;;;12.89;40.19
61337;BME280;47212;41.326;2.104;2024-02-23T23:22:24;100399.38;;;12.68;39.91
61337;BME280;47212;41.326;2.104;2024-02-23T23:27:26;100398.44;;;12.49;40.28
61337;BME280;47212;41.326;2.104;2024-02-23T23:32:28;100400.44;;;12.33;40.70
61337;BME280;47212;41.326;2.104;2024-02-23T23:37:30;100395.63;;;12.20;40.99
61337;BME280;47212;41.326;2.104;2024-02-23T23:42:33;100397.56;;;12.09;41.09
61337;BME280;47212;41.326;2.104;2024-02-23T23:47:35;100401.16;;;12.00;41.40
61337;BME280;47212;41.326;2.104;2024-02-23T23:52:37;100406.09;;;11.88;41.64
61337;BME280;47212;41.326;2.104;2024-02-23T23:57:39;100400.41;;;11.74;42.04
